CheckWX is a tool to help pilots better visualize weather data.  It is not intended as a substitute for an official pre-flight weather briefing.

04:17:49 UTC

KEWK METAR
Newton-City-County Airport
Newton, Kansas, USA
Current

22 mins ago

KEWK 250356Z AUTO 21006KT 10SM CLR 14/11 A2983 RMK AO2 SLP096 T01390111
Observed
Apr-25 @ 03:56 UTC
Wind
  • 210° at 6 KTS
Visibility
10 SM
Flight Rules
VFR
Cloud Levels
  • Clear skies
Temperature
14°C / 57°F
Dewpoint
11°C / 52°F
Humidity
82%
Altimeter
29.83" Hg
Pressure
1010.12 hPa
Previous

1 hour ago

KEWK 250256Z AUTO 18007KT 10SM CLR 14/09 A2984 RMK AO2 SLP099 T01440094 53004
Observed
Apr-25 @ 02:56 UTC
Wind
  • 180° at 7 KTS
Visibility
10 SM
Flight Rules
VFR
Cloud Levels
  • Clear skies
Temperature
14°C / 57°F
Dewpoint
C / 48°F
Humidity
72%
Altimeter
29.84" Hg
Pressure
1010.52 hPa
Previous

2 hours ago

KEWK 250156Z AUTO 17006KT 10SM CLR 17/10 A2983 RMK AO2 SLP095 T01670100
Observed
Apr-25 @ 01:56 UTC
Wind
  • 170° at 6 KTS
Visibility
10 SM
Flight Rules
VFR
Cloud Levels
  • Clear skies
Temperature
17°C / 63°F
Dewpoint
10°C / 50°F
Humidity
64%
Altimeter
29.83" Hg
Pressure
1010.12 hPa